ExpreSS Skopelitis — SW3130 — position and weather

sailwx.info

Track history (hours):
 
Tides and Currents Weather Stations Pressure Air Temp Water Temp Dewpoint Dewpoint Depression Visibility Wind Speed Wind Dir Waves Ship Positions

ExpreSS Skopelitis

Last reported at 2014-Oct-02 00:32 UTC. Time now 2014-Oct-02 00:37 UTC.
Position N 36°50' E 025°52'.

Length 45 m; draft 2.4 m.

Type: Passenger vessel. MMSI: 237029400.

Date/timePositionNaut miles runAvg speedWind from/ knotsBaromVisibWave heightAir tempDewpointWater temp
2014-Oct-02 00:32N 36°50' E 025°52'0 0.0
2014-Oct-01 22:32N 36°50' E 025°52'0 0.0
2014-Oct-01 21:32N 36°50' E 025°52'0 0.0
2014-Oct-01 19:25N 36°50' E 025°52'0 0.0
2014-Oct-01 18:32N 36°50' E 025°52'0 0.0
2014-Oct-01 17:33N 36°50' E 025°52'7 6.7
2014-Oct-01 16:34N 36°54' E 025°58'10 9.6
2014-Oct-01 15:33N 37°02' E 025°51'5 5.3
2014-Oct-01 14:33N 37°01' E 025°44'10 9.9
2014-Oct-01 13:33N 36°55' E 025°34'5 5.3
2014-Oct-01 12:33N 36°53' E 025°28'1212.0
2014-Oct-01 11:33N 37°03' E 025°20'4 3.7
2014-Oct-01 10:33N 37°06' E 025°22'0 0.0
2014-Oct-01 09:33N 37°06' E 025°22'5 5.0
2014-Oct-01 08:33N 37°01' E 025°21'1111.2
2014-Oct-01 07:33N 36°52' E 025°28'7 7.4
2014-Oct-01 06:33N 36°56' E 025°36'1211.9
2014-Oct-01 05:33N 37°04' E 025°46'8 8.3
2014-Oct-01 04:33N 36°59' E 025°54'7 6.8
2014-Oct-01 03:33N 36°52' E 025°54'3 1.0
2014-Oct-01 00:31N 36°50' E 025°52'0 0.0
2014-Sep-30 20:32N 36°50' E 025°52'0 0.0
2014-Sep-30 19:33N 36°50' E 025°52'0 0.0
2014-Sep-30 18:32N 36°50' E 025°52'0 0.0
2014-Sep-30 17:28N 36°50' E 025°52'0 0.0
2014-Sep-30 15:13N 36°50' E 025°52'710.5
2014-Sep-30 14:33N 36°53' E 025°44'8 8.6
2014-Sep-30 13:33N 36°55' E 025°34'5 4.8
2014-Sep-30 12:33N 36°53' E 025°28'1111.3
2014-Sep-30 11:33N 37°02' E 025°21'4 4.3
2014-Sep-30 10:33N 37°06' E 025°22'0 0.0
2014-Sep-30 09:33N 37°06' E 025°22'0 0.0
2014-Sep-30 08:33N 37°06' E 025°22'4 4.2
2014-Sep-30 07:33N 37°02' E 025°21'1110.7
2014-Sep-30 06:33N 36°53' E 025°28'6 5.8
2014-Sep-30 05:33N 36°55' E 025°35'10 9.5
2014-Sep-30 04:33N 36°52' E 025°46'1 0.0
2014-Sep-29 14:33N 36°52' E 025°46'9 9.2
2014-Sep-29 13:33N 36°56' E 025°36'7 6.8
2014-Sep-29 12:33N 36°52' E 025°29'1212.0
2014-Sep-29 11:33N 37°02' E 025°20'4 4.3
2014-Sep-29 10:33N 37°06' E 025°22'0 0.3
2014-Sep-29 09:33N 37°06' E 025°22'1010.1
2014-Sep-29 08:33N 36°56' E 025°25'6 5.9
2014-Sep-29 07:33N 36°54' E 025°31'7 7.2
2014-Sep-29 06:33N 36°50' E 025°39'1010.0
2014-Sep-29 05:34N 36°50' E 025°52'0 0.0
2014-Sep-27 17:14N 36°50' E 025°52'4 6.4
2014-Sep-27 16:33N 36°53' E 025°56'7 7.4
2014-Sep-27 15:33N 36°60' E 025°52'6 6.3
2014-Sep-27 14:33N 37°03' E 025°46'1010.4
2014-Sep-27 13:33N 36°56' E 025°36'7 7.1
2014-Sep-27 12:33N 36°52' E 025°29'1211.8
2014-Sep-27 11:33N 37°02' E 025°21'4 4.4
2014-Sep-27 10:32N 37°06' E 025°22'0 0.0
2014-Sep-27 09:33N 37°06' E 025°22'4 4.0
2014-Sep-27 08:32N 37°03' E 025°21'1310.7
2014-Sep-27 07:21N 36°52' E 025°29'7 8.4
2014-Sep-27 06:33N 36°56' E 025°36'1211.6
2014-Sep-27 05:32N 37°05' E 025°46'8 8.5
2014-Sep-27 04:33N 36°59' E 025°54'7 6.7
2014-Sep-27 03:33N 36°52' E 025°54'3 0.3
2014-Sep-26 15:15N 36°50' E 025°52'3 3.9
2014-Sep-26 14:33N 36°51' E 025°49'1111.3
2014-Sep-26 13:33N 36°56' E 025°36'7 7.3
2014-Sep-26 12:33N 36°52' E 025°28'1211.7
2014-Sep-26 11:33N 37°02' E 025°21'4 4.5
2014-Sep-26 10:33N 37°06' E 025°22'0 0.0
2014-Sep-26 09:33N 37°06' E 025°22'0 0.0
2014-Sep-26 08:33N 37°06' E 025°22'2 1.7
2014-Sep-26 07:33N 37°06' E 025°20'1211.9
2014-Sep-26 06:33N 36°55' E 025°26'6 5.6
2014-Sep-26 05:33N 36°55' E 025°33'10 9.7
2014-Sep-26 04:33N 36°53' E 025°45'4 0.3
2014-Sep-25 14:33N 36°50' E 025°49'1212.1
2014-Sep-25 13:33N 36°56' E 025°36'7 7.4
2014-Sep-25 12:33N 36°52' E 025°28'1111.5
2014-Sep-25 11:33N 37°02' E 025°21'5 4.9
2014-Sep-25 10:33N 37°06' E 025°22'0 0.0
2014-Sep-25 09:33N 37°06' E 025°22'0 0.0
2014-Sep-25 08:33N 37°06' E 025°22'2 1.9
2014-Sep-25 07:33N 37°05' E 025°20'1211.6
2014-Sep-25 06:33N 36°55' E 025°26'6 6.0
2014-Sep-25 05:33N 36°55' E 025°34'10 9.7
2014-Sep-25 04:33N 36°52' E 025°45'6 0.5
2014-Sep-24 17:17N 36°50' E 025°52'5 7.4
2014-Sep-24 16:33N 36°53' E 025°57'9 8.8
2014-Sep-24 15:33N 37°01' E 025°51'5 5.3
2014-Sep-24 14:33N 37°02' E 025°45'10 9.6
2014-Sep-24 13:33N 36°56' E 025°36'7 7.3
2014-Sep-24 12:33N 36°52' E 025°28'1111.3
2014-Sep-24 11:33N 37°02' E 025°21'5 4.9
2014-Sep-24 10:33N 37°06' E 025°22'0 0.0
2014-Sep-24 09:33N 37°06' E 025°22'5 4.8
2014-Sep-24 08:33N 37°02' E 025°21'1111.3
2014-Sep-24 07:33N 36°52' E 025°28'8 8.2
2014-Sep-24 06:34N 36°56' E 025°37'1312.6
2014-Sep-24 05:33N 37°06' E 025°47'1010.0
2014-Sep-24 04:32N 36°58' E 025°55'6 5.8
2014-Sep-24 03:33N 36°52' E 025°52'3 0.4
2014-Sep-23 21:30N 36°50' E 025°52'0 0.0
2014-Sep-23 20:28N 36°50' E 025°52'0 0.0
2014-Sep-23 17:04N 36°50' E 025°52'0 0.0
2014-Sep-23 16:29N 36°50' E 025°52'0 0.0
2014-Sep-23 15:28N 36°50' E 025°52'5 5.5
2014-Sep-23 14:33N 36°51' E 025°46'1010.2
2014-Sep-23 13:33N 36°55' E 025°34'5 5.3
2014-Sep-23 12:33N 36°53' E 025°28'1111.4
2014-Sep-23 11:33N 37°03' E 025°20'4 3.8
2014-Sep-23 10:33N 37°06' E 025°22'0 0.0
2014-Sep-23 09:33N 37°06' E 025°22'0 0.0
2014-Sep-23 08:33N 37°06' E 025°22'3 2.6
2014-Sep-23 07:33N 37°05' E 025°20'1212.1
2014-Sep-23 06:33N 36°54' E 025°27'5 5.3
2014-Sep-23 05:33N 36°55' E 025°33'10 9.8
2014-Sep-23 04:33N 36°52' E 025°45'6 5.7
2014-Sep-23 03:32N 36°50' E 025°52'0 0.0
2014-Sep-23 02:30N 36°50' E 025°52'0 0.0
2014-Sep-23 01:32N 36°50' E 025°52'0 0.0
2014-Sep-22 21:33N 36°50' E 025°52'0 0.0
2014-Sep-22 20:32N 36°50' E 025°52'0 0.0
2014-Sep-22 17:16N 36°50' E 025°52'5 7.3
2014-Sep-22 16:33N 36°53' E 025°57'9 8.9
2014-Sep-22 15:32N 37°01' E 025°51'5 5.4
2014-Sep-22 14:33N 37°03' E 025°45'1010.0
2014-Sep-22 13:33N 36°56' E 025°36'7 7.4
2014-Sep-22 12:33N 36°52' E 025°28'1111.1
2014-Sep-22 11:33N 37°01' E 025°21'5 5.0
2014-Sep-22 10:34N 37°06' E 025°22'0 0.0
2014-Sep-22 09:33N 37°06' E 025°22'4 4.2
2014-Sep-22 08:33N 37°02' E 025°21'1211.9
2014-Sep-22 07:33N 36°52' E 025°28'7 7.3
2014-Sep-22 06:33N 36°56' E 025°36'1111.0
2014-Sep-22 05:33N 37°04' E 025°46'7 7.3
2014-Sep-22 04:33N 36°60' E 025°53'7 7.2
2014-Sep-22 03:33N 36°52' E 025°54'  
Track history (hours):
 
Tides and Currents Weather Stations Pressure Air Temp Water Temp Dewpoint Dewpoint Depression Visibility Wind Speed Wind Dir Waves Ship Positions

ExpreSS Skopelitis

Last reported at 2014-Oct-02 00:32 UTC. Time now 2014-Oct-02 00:37 UTC.
Position N 36°50' E 025°52'.

Length 45 m; draft 2.4 m.

Type: Passenger vessel. MMSI: 237029400.

Date/timePositionNaut miles runAvg speedWind from/ knotsBaromVisibWave heightAir tempDewpointWater temp
2014-Oct-02 00:32N 36°50' E 025°52'0 0.0
2014-Oct-01 22:32N 36°50' E 025°52'0 0.0
2014-Oct-01 21:32N 36°50' E 025°52'0 0.0
2014-Oct-01 19:25N 36°50' E 025°52'0 0.0
2014-Oct-01 18:32N 36°50' E 025°52'0 0.0
2014-Oct-01 17:33N 36°50' E 025°52'7 6.7
2014-Oct-01 16:34N 36°54' E 025°58'10 9.6
2014-Oct-01 15:33N 37°02' E 025°51'5 5.3
2014-Oct-01 14:33N 37°01' E 025°44'10 9.9
2014-Oct-01 13:33N 36°55' E 025°34'5 5.3
2014-Oct-01 12:33N 36°53' E 025°28'1212.0
2014-Oct-01 11:33N 37°03' E 025°20'4 3.7
2014-Oct-01 10:33N 37°06' E 025°22'0 0.0
2014-Oct-01 09:33N 37°06' E 025°22'5 5.0
2014-Oct-01 08:33N 37°01' E 025°21'1111.2
2014-Oct-01 07:33N 36°52' E 025°28'7 7.4
2014-Oct-01 06:33N 36°56' E 025°36'1211.9
2014-Oct-01 05:33N 37°04' E 025°46'8 8.3
2014-Oct-01 04:33N 36°59' E 025°54'7 6.8
2014-Oct-01 03:33N 36°52' E 025°54'3 1.0
2014-Oct-01 00:31N 36°50' E 025°52'0 0.0
2014-Sep-30 20:32N 36°50' E 025°52'0 0.0
2014-Sep-30 19:33N 36°50' E 025°52'0 0.0
2014-Sep-30 18:32N 36°50' E 025°52'0 0.0
2014-Sep-30 17:28N 36°50' E 025°52'0 0.0
2014-Sep-30 15:13N 36°50' E 025°52'710.5
2014-Sep-30 14:33N 36°53' E 025°44'8 8.6
2014-Sep-30 13:33N 36°55' E 025°34'5 4.8
2014-Sep-30 12:33N 36°53' E 025°28'1111.3
2014-Sep-30 11:33N 37°02' E 025°21'4 4.3
2014-Sep-30 10:33N 37°06' E 025°22'0 0.0
2014-Sep-30 09:33N 37°06' E 025°22'0 0.0
2014-Sep-30 08:33N 37°06' E 025°22'4 4.2
2014-Sep-30 07:33N 37°02' E 025°21'1110.7
2014-Sep-30 06:33N 36°53' E 025°28'6 5.8
2014-Sep-30 05:33N 36°55' E 025°35'10 9.5
2014-Sep-30 04:33N 36°52' E 025°46'1 0.0
2014-Sep-29 14:33N 36°52' E 025°46'9 9.2
2014-Sep-29 13:33N 36°56' E 025°36'7 6.8
2014-Sep-29 12:33N 36°52' E 025°29'1212.0
2014-Sep-29 11:33N 37°02' E 025°20'4 4.3
2014-Sep-29 10:33N 37°06' E 025°22'0 0.3
2014-Sep-29 09:33N 37°06' E 025°22'1010.1
2014-Sep-29 08:33N 36°56' E 025°25'6 5.9
2014-Sep-29 07:33N 36°54' E 025°31'7 7.2
2014-Sep-29 06:33N 36°50' E 025°39'1010.0
2014-Sep-29 05:34N 36°50' E 025°52'0 0.0
2014-Sep-27 17:14N 36°50' E 025°52'4 6.4
2014-Sep-27 16:33N 36°53' E 025°56'7 7.4
2014-Sep-27 15:33N 36°60' E 025°52'6 6.3
2014-Sep-27 14:33N 37°03' E 025°46'1010.4
2014-Sep-27 13:33N 36°56' E 025°36'7 7.1
2014-Sep-27 12:33N 36°52' E 025°29'1211.8
2014-Sep-27 11:33N 37°02' E 025°21'4 4.4
2014-Sep-27 10:32N 37°06' E 025°22'0 0.0
2014-Sep-27 09:33N 37°06' E 025°22'4 4.0
2014-Sep-27 08:32N 37°03' E 025°21'1310.7
2014-Sep-27 07:21N 36°52' E 025°29'7 8.4
2014-Sep-27 06:33N 36°56' E 025°36'1211.6
2014-Sep-27 05:32N 37°05' E 025°46'8 8.5
2014-Sep-27 04:33N 36°59' E 025°54'7 6.7
2014-Sep-27 03:33N 36°52' E 025°54'3 0.3
2014-Sep-26 15:15N 36°50' E 025°52'3 3.9
2014-Sep-26 14:33N 36°51' E 025°49'1111.3
2014-Sep-26 13:33N 36°56' E 025°36'7 7.3
2014-Sep-26 12:33N 36°52' E 025°28'1211.7
2014-Sep-26 11:33N 37°02' E 025°21'4 4.5
2014-Sep-26 10:33N 37°06' E 025°22'0 0.0
2014-Sep-26 09:33N 37°06' E 025°22'0 0.0
2014-Sep-26 08:33N 37°06' E 025°22'2 1.7
2014-Sep-26 07:33N 37°06' E 025°20'1211.9
2014-Sep-26 06:33N 36°55' E 025°26'6 5.6
2014-Sep-26 05:33N 36°55' E 025°33'10 9.7
2014-Sep-26 04:33N 36°53' E 025°45'4 0.3
2014-Sep-25 14:33N 36°50' E 025°49'1212.1
2014-Sep-25 13:33N 36°56' E 025°36'7 7.4
2014-Sep-25 12:33N 36°52' E 025°28'1111.5
2014-Sep-25 11:33N 37°02' E 025°21'5 4.9
2014-Sep-25 10:33N 37°06' E 025°22'0 0.0
2014-Sep-25 09:33N 37°06' E 025°22'0 0.0
2014-Sep-25 08:33N 37°06' E 025°22'2 1.9
2014-Sep-25 07:33N 37°05' E 025°20'1211.6
2014-Sep-25 06:33N 36°55' E 025°26'6 6.0
2014-Sep-25 05:33N 36°55' E 025°34'10 9.7
2014-Sep-25 04:33N 36°52' E 025°45'6 0.5
2014-Sep-24 17:17N 36°50' E 025°52'5 7.4
2014-Sep-24 16:33N 36°53' E 025°57'9 8.8
2014-Sep-24 15:33N 37°01' E 025°51'5 5.3
2014-Sep-24 14:33N 37°02' E 025°45'10 9.6
2014-Sep-24 13:33N 36°56' E 025°36'7 7.3
2014-Sep-24 12:33N 36°52' E 025°28'1111.3
2014-Sep-24 11:33N 37°02' E 025°21'5 4.9
2014-Sep-24 10:33N 37°06' E 025°22'0 0.0
2014-Sep-24 09:33N 37°06' E 025°22'5 4.8
2014-Sep-24 08:33N 37°02' E 025°21'1111.3
2014-Sep-24 07:33N 36°52' E 025°28'8 8.2
2014-Sep-24 06:34N 36°56' E 025°37'1312.6
2014-Sep-24 05:33N 37°06' E 025°47'1010.0
2014-Sep-24 04:32N 36°58' E 025°55'6 5.8
2014-Sep-24 03:33N 36°52' E 025°52'3 0.4
2014-Sep-23 21:30N 36°50' E 025°52'0 0.0
2014-Sep-23 20:28N 36°50' E 025°52'0 0.0
2014-Sep-23 17:04N 36°50' E 025°52'0 0.0
2014-Sep-23 16:29N 36°50' E 025°52'0 0.0
2014-Sep-23 15:28N 36°50' E 025°52'5 5.5
2014-Sep-23 14:33N 36°51' E 025°46'1010.2
2014-Sep-23 13:33N 36°55' E 025°34'5 5.3
2014-Sep-23 12:33N 36°53' E 025°28'1111.4
2014-Sep-23 11:33N 37°03' E 025°20'4 3.8
2014-Sep-23 10:33N 37°06' E 025°22'0 0.0
2014-Sep-23 09:33N 37°06' E 025°22'0 0.0
2014-Sep-23 08:33N 37°06' E 025°22'3 2.6
2014-Sep-23 07:33N 37°05' E 025°20'1212.1
2014-Sep-23 06:33N 36°54' E 025°27'5 5.3
2014-Sep-23 05:33N 36°55' E 025°33'10 9.8
2014-Sep-23 04:33N 36°52' E 025°45'6 5.7
2014-Sep-23 03:32N 36°50' E 025°52'0 0.0
2014-Sep-23 02:30N 36°50' E 025°52'0 0.0
2014-Sep-23 01:32N 36°50' E 025°52'0 0.0
2014-Sep-22 21:33N 36°50' E 025°52'0 0.0
2014-Sep-22 20:32N 36°50' E 025°52'0 0.0
2014-Sep-22 17:16N 36°50' E 025°52'5 7.3
2014-Sep-22 16:33N 36°53' E 025°57'9 8.9
2014-Sep-22 15:32N 37°01' E 025°51'5 5.4
2014-Sep-22 14:33N 37°03' E 025°45'1010.0
2014-Sep-22 13:33N 36°56' E 025°36'7 7.4
2014-Sep-22 12:33N 36°52' E 025°28'1111.1
2014-Sep-22 11:33N 37°01' E 025°21'5 5.0
2014-Sep-22 10:34N 37°06' E 025°22'0 0.0
2014-Sep-22 09:33N 37°06' E 025°22'4 4.2
2014-Sep-22 08:33N 37°02' E 025°21'1211.9
2014-Sep-22 07:33N 36°52' E 025°28'7 7.3
2014-Sep-22 06:33N 36°56' E 025°36'1111.0
2014-Sep-22 05:33N 37°04' E 025°46'7 7.3
2014-Sep-22 04:33N 36°60' E 025°53'7 7.2
2014-Sep-22 03:33N 36°52' E 025°54'  

Dump ship's entire track history